Time;durP1;ratioP1;P1;durP2;ratioP2;P2;SDS_P1;SDS_P2;PMS_P1;PMS_P2;Temp;Humidity;BMP_temperature;BMP_pressure;BME280_temperature;BME280_humidity;BME280_pressure;Samples;Min_cycle;Max_cycle;Signal;HPM_P1;HPM_P2
2022/10/31 00:00:21;;;;;;;16.13;4.43;;;;;;;15.43;49.38;99681.28;5050222;28;20037;-66
2022/10/31 00:02:46;;;;;;;8.55;5.03;;;;;;;15.61;48.82;99673.28;5050282;28;20067;-66
2022/10/31 00:05:12;;;;;;;9.57;4.45;;;;;;;15.64;48.97;99686.69;5033520;28;20057;-67
2022/10/31 00:07:37;;;;;;;10.18;4.55;;;;;;;15.65;48.69;99674.22;5051217;28;20028;-66
2022/10/31 00:10:03;;;;;;;11.05;4.90;;;;;;;15.64;48.56;99671.75;5051000;28;20057;-66
2022/10/31 00:12:29;;;;;;;8.23;4.25;;;;;;;15.70;48.55;99681.59;5033311;28;20407;-66
2022/10/31 00:14:54;;;;;;;9.15;4.75;;;;;;;15.64;48.96;99675.41;5033401;28;20024;-67
2022/10/31 00:17:20;;;;;;;9.50;4.47;;;;;;;15.72;48.62;99682.03;5032043;28;20037;-66
2022/10/31 00:19:45;;;;;;;8.15;4.32;;;;;;;15.76;48.80;99676.50;5051182;28;20116;-66
2022/10/31 00:22:11;;;;;;;8.73;4.63;;;;;;;15.82;48.62;99677.81;5051009;28;20056;-66
2022/10/31 00:24:36;;;;;;;8.50;3.78;;;;;;;15.95;48.52;99684.22;5051446;28;20032;-66
2022/10/31 00:27:05;;;;;;;6.60;3.75;;;;;;;16.09;47.71;99684.56;5050929;28;20025;-67
2022/10/31 00:29:30;;;;;;;5.57;4.03;;;;;;;16.07;47.88;99683.28;5050165;28;20040;-67
2022/10/31 00:31:55;;;;;;;11.57;4.07;;;;;;;16.03;48.12;99686.00;5050696;28;20028;-67
2022/10/31 00:34:21;;;;;;;8.30;3.92;;;;;;;15.99;47.96;99680.31;5033497;28;20510;-67
2022/10/31 00:36:46;;;;;;;8.93;4.45;;;;;;;16.20;47.34;99678.34;5050649;28;20488;-66
2022/10/31 00:39:12;;;;;;;10.32;5.18;;;;;;;16.18;47.55;99686.38;5032943;28;20025;-67
2022/10/31 00:41:37;;;;;;;8.15;4.00;;;;;;;16.21;47.33;99682.78;5050952;28;20032;-67
2022/10/31 00:44:03;;;;;;;10.75;4.55;;;;;;;16.21;47.28;99682.78;5050925;28;20029;-66
2022/10/31 00:46:28;;;;;;;13.23;4.72;;;;;;;16.15;47.50;99687.91;5048830;28;20099;-66
2022/10/31 00:48:53;;;;;;;10.63;4.32;;;;;;;16.10;47.44;99683.38;5050886;28;20032;-67
2022/10/31 00:51:19;;;;;;;8.73;4.20;;;;;;;16.23;47.30;99683.25;5050627;28;20036;-66
2022/10/31 00:53:44;;;;;;;10.95;4.40;;;;;;;16.36;46.82;99678.28;5032922;28;20029;-66
2022/10/31 00:56:10;;;;;;;10.43;4.28;;;;;;;16.38;46.94;99681.56;5050669;28;20037;-67
2022/10/31 00:58:35;;;;;;;8.18;3.88;;;;;;;16.21;47.48;99685.63;5050803;28;20028;-66
2022/10/31 01:01:01;;;;;;;11.38;4.25;;;;;;;16.31;46.93;99682.22;5053430;28;20029;-66
2022/10/31 01:03:29;;;;;;;6.95;3.88;;;;;;;16.34;47.10;99686.28;5054697;28;20032;-66
2022/10/31 01:06:00;;;;;;;5.93;3.28;;;;;;;16.35;47.14;99683.09;5054406;28;20032;-67
2022/10/31 01:08:25;;;;;;;5.47;4.05;;;;;;;16.32;47.00;99678.22;5035470;28;20389;-66
2022/10/31 01:11:05;;;;;;;7.13;3.78;;;;;;;16.37;47.15;99677.09;5036468;28;20060;-67
2022/10/31 01:13:31;;;;;;;5.38;3.35;;;;;;;16.35;47.25;99683.09;5034747;28;20030;-66
2022/10/31 01:15:58;;;;;;;6.80;3.53;;;;;;;16.40;47.07;99671.50;5048606;28;20082;-67
2022/10/31 01:18:23;;;;;;;6.82;3.65;;;;;;;16.33;47.31;99674.19;5054481;28;20510;-67
2022/10/31 01:21:23;;;;;;;7.43;4.30;;;;;;;16.38;47.31;99671.06;5054449;28;20029;-67
2022/10/31 01:23:49;;;;;;;10.18;3.58;;;;;;;16.45;47.30;99670.41;4994164;28;20041;-67
2022/10/31 01:26:23;;;;;;;8.80;4.18;;;;;;;16.37;47.87;99680.72;5054192;28;20037;-67
2022/10/31 01:28:52;;;;;;;7.43;4.00;;;;;;;16.35;47.50;99666.19;5053292;28;20159;-67
2022/10/31 01:31:20;;;;;;;9.32;3.97;;;;;;;16.41;47.57;99675.16;5016496;28;20021;-67
2022/10/31 01:33:45;;;;;;;10.48;3.85;;;;;;;16.46;47.51;99671.25;5034330;28;20030;-66
2022/10/31 01:36:20;;;;;;;11.32;4.57;;;;;;;16.42;47.61;99665.50;5023154;28;20036;-66
2022/10/31 01:38:47;;;;;;;6.43;3.95;;;;;;;16.43;47.67;99675.63;5035022;28;20510;-67
2022/10/31 01:41:15;;;;;;;9.75;3.70;;;;;;;16.58;47.35;99673.91;5051659;28;20124;-67
2022/10/31 01:43:43;;;;;;;9.63;3.80;;;;;;;16.56;47.18;99670.66;5035110;28;20174;-66
2022/10/31 01:46:09;;;;;;;11.40;4.05;;;;;;;16.64;46.97;99677.25;5018792;28;20147;-68
2022/10/31 01:48:34;;;;;;;5.18;3.67;;;;;;;16.64;47.24;99674.44;5053889;28;20032;-66
2022/10/31 01:51:00;;;;;;;6.25;3.97;;;;;;;16.55;47.73;99672.66;5035738;28;20063;-67
2022/10/31 01:53:26;;;;;;;8.13;3.65;;;;;;;16.53;47.67;99677.03;5053839;28;20037;-67
2022/10/31 01:55:51;;;;;;;21.83;4.75;;;;;;;16.58;47.49;99668.28;5052041;28;20032;-67
2022/10/31 01:58:23;;;;;;;10.57;4.07;;;;;;;16.62;47.32;99666.34;5053718;28;20028;-66
2022/10/31 02:00:51;;;;;;;6.93;3.85;;;;;;;16.68;47.25;99666.84;5053488;28;20480;-66
2022/10/31 02:03:19;;;;;;;10.48;4.25;;;;;;;16.55;47.31;99657.72;5035416;28;20033;-66
2022/10/31 02:05:46;;;;;;;6.40;4.13;;;;;;;16.55;47.45;99663.38;5053021;28;20039;-66
2022/10/31 02:08:28;;;;;;;7.88;4.18;;;;;;;16.52;47.45;99662.09;5035477;28;20032;-67
2022/10/31 02:10:55;;;;;;;15.07;3.83;;;;;;;16.48;47.39;99663.22;5051419;28;20508;-67
2022/10/31 02:13:22;;;;;;;10.93;4.10;;;;;;;16.51;47.34;99657.66;5053596;28;20163;-67
2022/10/31 02:15:52;;;;;;;6.28;3.60;;;;;;;16.50;47.46;99661.66;5053135;28;20039;-66
2022/10/31 02:18:19;;;;;;;5.97;3.95;;;;;;;16.45;47.44;99659.13;5053417;28;20033;-67
2022/10/31 02:20:57;;;;;;;9.25;4.07;;;;;;;16.52;47.36;99669.75;5053157;28;20050;-67
2022/10/31 02:23:42;;;;;;;6.68;3.65;;;;;;;16.50;47.12;99667.31;5050254;28;20036;-68
2022/10/31 02:26:26;;;;;;;6.32;3.92;;;;;;;16.49;47.07;99664.84;5033415;28;20018;-67
2022/10/31 02:29:17;;;;;;;6.80;4.03;;;;;;;16.55;47.12;99669.03;5050249;28;20098;-67
2022/10/31 02:32:07;;;;;;;10.40;4.18;;;;;;;16.50;47.33;99667.31;5053148;28;20025;-67
2022/10/31 02:34:41;;;;;;;10.25;4.40;;;;;;;16.48;47.52;99666.88;5053186;28;20124;-66
2022/10/31 02:37:30;;;;;;;4.90;3.70;;;;;;;16.45;47.67;99681.69;5034709;28;20488;-66
2022/10/31 02:40:07;;;;;;;5.63;3.92;;;;;;;16.34;48.13;99673.00;5032241;28;20033;-67
2022/10/31 02:42:58;;;;;;;6.85;3.95;;;;;;;16.18;48.12;99669.44;5052506;28;20024;-67
2022/10/31 02:45:33;;;;;;;8.65;4.22;;;;;;;16.18;48.02;99678.69;5018129;28;20134;-66
2022/10/31 02:48:07;;;;;;;5.93;3.35;;;;;;;16.14;48.09;99675.00;5052467;28;20032;-66
2022/10/31 02:50:35;;;;;;;6.47;3.70;;;;;;;16.06;48.06;99673.19;5052901;28;20029;-66
2022/10/31 02:53:01;;;;;;;9.45;3.63;;;;;;;16.24;47.61;99667.94;5033920;28;20044;-66
2022/10/31 02:55:27;;;;;;;9.50;3.90;;;;;;;16.19;47.61;99669.03;5052699;28;20025;-66
2022/10/31 02:58:06;;;;;;;7.97;3.67;;;;;;;16.25;47.38;99670.41;5052574;28;20036;-67
2022/10/31 03:00:53;;;;;;;10.57;3.85;;;;;;;16.29;47.37;99670.50;5034700;28;20036;-67
2022/10/31 03:03:44;;;;;;;14.60;4.65;;;;;;;16.27;47.29;99675.66;5017897;28;20021;-67
2022/10/31 03:06:34;;;;;;;10.20;4.00;;;;;;;16.32;47.27;99677.38;5052335;28;20029;-66
2022/10/31 03:09:04;;;;;;;9.75;3.85;;;;;;;16.35;47.22;99682.28;5051165;28;20025;-66
2022/10/31 03:11:39;;;;;;;5.63;3.25;;;;;;;16.38;47.16;99681.56;5034394;28;20053;-66
2022/10/31 03:14:22;;;;;;;14.13;5.72;;;;;;;16.44;46.83;99677.25;5051989;28;20029;-66
2022/10/31 03:16:52;;;;;;;15.25;4.78;;;;;;;16.45;46.65;99672.44;5052223;28;20105;-67
2022/10/31 03:19:31;;;;;;;7.70;4.00;;;;;;;16.54;46.48;99678.69;5051978;28;20407;-66
2022/10/31 03:22:22;;;;;;;9.45;3.17;;;;;;;16.44;46.95;99680.06;5051272;28;20051;-66
2022/10/31 03:24:51;;;;;;;9.60;5.05;;;;;;;16.57;46.48;99683.59;5052041;28;20162;-66
2022/10/31 03:27:22;;;;;;;9.55;4.72;;;;;;;16.70;46.20;99687.88;5052114;28;20033;-67
2022/10/31 03:29:50;;;;;;;8.60;3.97;;;;;;;16.76;46.17;99690.41;5033732;28;20071;-67
2022/10/31 03:32:22;;;;;;;8.45;3.88;;;;;;;16.76;46.06;99681.94;5034060;28;20083;-67
2022/10/31 03:34:49;;;;;;;8.00;3.95;;;;;;;16.80;45.96;99692.13;5051936;28;20052;-66
2022/10/31 03:37:18;;;;;;;10.02;3.97;;;;;;;16.79;46.08;99684.84;5048933;28;20036;-67
2022/10/31 03:39:46;;;;;;;9.50;3.97;;;;;;;16.73;46.15;99682.69;5051588;28;20029;-66
2022/10/31 03:42:18;;;;;;;5.68;3.88;;;;;;;16.80;46.19;99694.94;5051749;28;20031;-66
2022/10/31 03:44:51;;;;;;;10.82;3.97;;;;;;;16.70;46.23;99682.25;5051677;28;20025;-67
2022/10/31 03:47:17;;;;;;;9.65;3.90;;;;;;;16.79;46.17;99695.34;5033917;28;20017;-67
2022/10/31 03:49:42;;;;;;;8.25;3.65;;;;;;;16.77;46.27;99694.88;5051772;28;20032;-68
2022/10/31 03:52:29;;;;;;;9.57;4.07;;;;;;;16.81;46.45;99692.94;5050508;28;20158;-67
2022/10/31 03:55:05;;;;;;;12.30;4.60;;;;;;;16.76;46.61;99693.22;5051573;28;20138;-67
2022/10/31 03:57:36;;;;;;;7.78;3.83;;;;;;;16.69;46.75;99696.72;5049790;28;20041;-67
2022/10/31 04:00:08;;;;;;;9.73;4.10;;;;;;;16.60;46.80;99691.31;5033809;28;20051;-66
2022/10/31 04:02:40;;;;;;;12.85;3.72;;;;;;;16.39;47.08;99686.81;5051461;28;20025;-66
2022/10/31 04:05:08;;;;;;;11.07;4.20;;;;;;;16.20;47.71;99692.44;5051074;28;20029;-67
2022/10/31 04:07:38;;;;;;;6.57;3.67;;;;;;;16.17;47.73;99705.28;5049922;28;20102;-67
2022/10/31 04:10:09;;;;;;;14.70;5.55;;;;;;;16.09;48.00;99703.47;5051095;28;20633;-67
2022/10/31 04:12:38;;;;;;;7.72;4.50;;;;;;;15.75;48.89;99688.91;5051344;28;20400;-66
2022/10/31 04:15:06;;;;;;;17.55;5.25;;;;;;;15.68;48.57;99698.84;5051260;28;20028;-67
2022/10/31 04:17:36;;;;;;;9.50;5.05;;;;;;;15.62;49.08;99705.94;5031315;28;20021;-67
2022/10/31 04:20:06;;;;;;;15.68;6.07;;;;;;;15.58;49.32;99703.03;5032839;28;20032;-67
2022/10/31 04:22:31;;;;;;;11.07;4.63;;;;;;;15.64;49.04;99697.97;5051234;28;20052;-66
2022/10/31 04:24:56;;;;;;;9.80;3.75;;;;;;;15.53;48.89;99700.47;5033148;28;20497;-66
2022/10/31 04:27:22;;;;;;;9.18;3.58;;;;;;;15.52;49.16;99718.59;5033012;28;20016;-67
2022/10/31 04:29:47;;;;;;;7.47;3.92;;;;;;;15.56;48.83;99713.84;5051063;28;20032;-67
2022/10/31 04:32:13;;;;;;;8.50;4.43;;;;;;;15.51;48.70;99716.16;5033237;28;20023;-66
2022/10/31 04:34:38;;;;;;;10.70;3.60;;;;;;;15.47;48.85;99718.88;5049371;28;20032;-67
2022/10/31 04:37:04;;;;;;;12.95;4.03;;;;;;;15.50;48.90;99722.94;5032693;28;20025;-67
2022/10/31 04:39:30;;;;;;;15.43;4.18;;;;;;;15.45;49.08;99732.50;5049287;28;20051;-66
2022/10/31 04:41:55;;;;;;;10.00;4.25;;;;;;;15.47;48.99;99730.13;5028629;28;20025;-66
2022/10/31 04:44:21;;;;;;;22.13;6.93;;;;;;;15.57;48.84;99728.78;5031057;28;20037;-66
2022/10/31 04:46:46;;;;;;;8.80;4.85;;;;;;;15.72;48.56;99738.44;5030929;28;20017;-67
2022/10/31 04:49:12;;;;;;;15.00;5.45;;;;;;;15.92;47.95;99741.34;5014590;28;20029;-67
2022/10/31 04:51:37;;;;;;;21.65;4.68;;;;;;;16.05;47.64;99750.53;5049458;28;20039;-68
2022/10/31 04:54:03;;;;;;;14.93;4.47;;;;;;;15.97;47.78;99749.53;5013016;28;20515;-68
2022/10/31 04:56:29;;;;;;;9.18;3.33;;;;;;;16.01;47.65;99758.91;5013092;28;20026;-68
2022/10/31 04:58:54;;;;;;;18.75;5.05;;;;;;;16.07;47.30;99756.63;5030937;28;20029;-67
2022/10/31 05:01:20;;;;;;;23.80;5.38;;;;;;;16.05;47.75;99757.00;5030772;28;20033;-67
2022/10/31 05:03:45;;;;;;;17.25;4.63;;;;;;;16.12;47.65;99764.84;5047181;28;20046;-68
2022/10/31 05:06:10;;;;;;;10.02;5.40;;;;;;;16.06;47.28;99769.94;5050471;28;21600;-68
2022/10/31 05:08:36;;;;;;;15.98;4.18;;;;;;;15.91;47.67;99767.91;5050593;28;20432;-68
2022/10/31 05:11:03;;;;;;;13.60;4.88;;;;;;;15.63;48.32;99765.97;5050445;28;20056;-68
2022/10/31 05:13:28;;;;;;;19.75;5.25;;;;;;;15.71;48.54;99777.06;5050696;28;20029;-69
2022/10/31 05:15:54;;;;;;;13.88;4.45;;;;;;;15.75;48.42;99782.81;5050164;28;20530;-67
2022/10/31 05:18:19;;;;;;;13.43;4.47;;;;;;;15.66;48.62;99787.78;5048794;28;20029;-68
2022/10/31 05:20:45;;;;;;;10.70;3.90;;;;;;;15.53;49.07;99787.88;5028287;28;20086;-68
2022/10/31 05:23:10;;;;;;;13.48;4.45;;;;;;;15.48;49.47;99781.69;5050762;28;20025;-67
2022/10/31 05:25:36;;;;;;;14.90;4.88;;;;;;;15.52;49.30;99783.41;5050364;28;20028;-68
2022/10/31 05:28:01;;;;;;;33.83;5.18;;;;;;;15.30;50.19;99793.28;5050644;28;20020;-70
2022/10/31 05:30:31;;;;;;;15.73;5.65;;;;;;;15.37;50.33;99806.75;5049773;28;20021;-69
2022/10/31 05:32:57;;;;;;;20.38;5.35;;;;;;;15.38;50.40;99803.56;5049496;28;20024;-71
2022/10/31 05:35:27;;;;;;;19.05;6.13;;;;;;;15.44;50.02;99804.94;5033214;28;20104;-69
2022/10/31 05:37:52;;;;;;;16.20;8.18;;;;;;;15.56;50.05;99806.06;5049672;28;20044;-70
2022/10/31 05:40:20;;;;;;;21.70;8.70;;;;;;;15.64;49.98;99807.91;5050595;28;20063;-70
2022/10/31 05:42:46;;;;;;;24.25;8.43;;;;;;;15.84;49.50;99808.84;5032568;28;20021;-69
2022/10/31 05:45:14;;;;;;;13.85;5.07;;;;;;;15.95;49.11;99811.16;5049944;28;20492;-71
2022/10/31 05:47:41;;;;;;;14.48;6.97;;;;;;;16.13;48.70;99817.25;5034106;28;20243;-70
2022/10/31 05:50:08;;;;;;;12.07;5.43;;;;;;;16.04;49.03;99813.78;5035634;28;20029;-69
2022/10/31 05:52:34;;;;;;;18.77;5.38;;;;;;;16.07;49.32;99821.53;5053857;28;20415;-70
2022/10/31 05:54:59;;;;;;;25.60;7.18;;;;;;;16.12;49.18;99818.44;5035887;28;20124;-70
2022/10/31 05:57:25;;;;;;;32.78;10.60;;;;;;;16.28;49.23;99829.69;5052426;28;20028;-69
2022/10/31 05:59:52;;;;;;;46.90;9.40;;;;;;;16.25;49.43;99828.44;5035650;28;20112;-70
2022/10/31 06:02:19;;;;;;;27.73;7.95;;;;;;;16.21;50.12;99829.53;5029534;28;20116;-70
2022/10/31 06:04:44;;;;;;;14.80;5.93;;;;;;;16.20;49.83;99834.34;5051591;28;20017;-70
2022/10/31 06:07:10;;;;;;;11.63;4.18;;;;;;;16.21;49.53;99826.72;5044582;28;20403;-69
2022/10/31 06:09:35;;;;;;;24.45;5.88;;;;;;;16.30;49.49;99830.19;5034261;28;20021;-70
2022/10/31 06:12:01;;;;;;;17.27;4.32;;;;;;;16.42;49.26;99840.53;5052087;28;20056;-72
2022/10/31 06:14:26;;;;;;;15.57;5.93;;;;;;;16.36;49.04;99837.16;5035973;28;20488;-70
2022/10/31 06:16:52;;;;;;;12.80;4.70;;;;;;;16.38;49.24;99829.16;5052124;28;20353;-70
2022/10/31 06:19:17;;;;;;;19.20;4.90;;;;;;;16.60;48.88;99840.97;5050579;28;20479;-70
2022/10/31 06:21:42;;;;;;;16.05;5.20;;;;;;;16.55;49.14;99841.25;5044568;28;20040;-69
2022/10/31 06:24:08;;;;;;;13.73;5.03;;;;;;;16.57;49.22;99841.69;5032479;28;20090;-70
2022/10/31 06:26:35;;;;;;;13.82;5.00;;;;;;;16.53;49.54;99852.06;5051776;28;20021;-71
2022/10/31 06:29:00;;;;;;;15.77;4.68;;;;;;;16.56;49.52;99851.34;5048024;28;20439;-70
2022/10/31 06:31:25;;;;;;;16.23;5.65;;;;;;;16.52;49.35;99847.59;5049045;28;20106;-70
2022/10/31 06:33:51;;;;;;;10.98;6.05;;;;;;;16.53;49.47;99852.06;5025517;28;20032;-75
2022/10/31 06:36:16;;;;;;;20.30;7.38;;;;;;;16.62;49.56;99861.16;5030138;28;20106;-73
2022/10/31 06:38:42;;;;;;;16.52;6.53;;;;;;;16.89;48.98;99871.88;5031295;28;20052;-74
2022/10/31 06:41:08;;;;;;;14.38;5.50;;;;;;;17.06;48.37;99871.47;5051463;28;20025;-74
2022/10/31 06:43:34;;;;;;;14.25;6.43;;;;;;;17.38;47.91;99879.03;5050048;28;20025;-72
2022/10/31 06:46:05;;;;;;;12.05;5.35;;;;;;;17.65;47.37;99876.34;5022306;28;20035;-72
2022/10/31 06:48:32;;;;;;;27.98;5.10;;;;;;;17.87;46.77;99876.78;5044519;28;20492;-71
2022/10/31 06:51:01;;;;;;;14.85;5.53;;;;;;;17.93;46.72;99875.25;5045276;28;20055;-71
2022/10/31 06:53:29;;;;;;;28.07;5.80;;;;;;;17.97;46.69;99876.13;5033151;28;20465;-73
2022/10/31 06:55:55;;;;;;;25.42;12.02;;;;;;;17.80;46.82;99864.13;5049428;28;20033;-72
2022/10/31 06:58:21;;;;;;;27.38;13.38;;;;;;;17.96;46.26;99869.66;5034682;28;20017;-75
2022/10/31 07:00:47;;;;;;;27.83;12.50;;;;;;;18.17;45.64;99862.81;5018431;28;20489;-76
2022/10/31 07:03:15;;;;;;;23.13;7.93;;;;;;;18.41;45.08;99868.44;5026018;28;20064;-80
2022/10/31 07:05:41;;;;;;;38.78;13.85;;;;;;;18.65;44.50;99868.03;5051324;28;20025;-74
2022/10/31 07:08:10;;;;;;;31.48;10.30;;;;;;;18.83;44.03;99864.66;5032918;28;20036;-74
2022/10/31 07:10:36;;;;;;;25.15;7.57;;;;;;;18.95;43.93;99855.09;5048701;28;20122;-74
2022/10/31 07:13:06;;;;;;;26.88;11.60;;;;;;;19.08;43.34;99847.22;5047692;28;20032;-72
2022/10/31 07:15:37;;;;;;;54.55;23.52;;;;;;;19.27;43.14;99854.75;5044131;28;20029;-70
2022/10/31 07:18:08;;;;;;;36.28;13.60;;;;;;;19.36;42.52;99851.63;5052065;28;20025;-70
2022/10/31 07:20:34;;;;;;;16.23;6.85;;;;;;;19.56;42.71;99857.13;5051037;28;20025;-71
2022/10/31 07:23:00;;;;;;;16.67;7.20;;;;;;;19.64;42.56;99850.31;5033079;28;20147;-70
2022/10/31 07:25:26;;;;;;;18.27;6.20;;;;;;;19.77;42.15;99842.38;5026010;28;20467;-70
2022/10/31 07:27:52;;;;;;;12.15;4.00;;;;;;;19.85;41.82;99848.94;5028071;28;20063;-71
2022/10/31 07:30:18;;;;;;;24.92;5.25;;;;;;;20.01;41.67;99846.69;5052097;28;20021;-70
2022/10/31 07:32:45;;;;;;;10.55;4.55;;;;;;;20.12;41.36;99845.97;5032497;28;20029;-69
2022/10/31 07:35:16;;;;;;;16.25;5.38;;;;;;;20.30;41.61;99849.81;5050846;28;20040;-69
2022/10/31 07:37:41;;;;;;;10.65;3.58;;;;;;;20.33;41.01;99846.16;5050277;28;20013;-68
2022/10/31 07:40:08;;;;;;;12.95;4.30;;;;;;;20.49;40.55;99845.06;5032836;28;20103;-68
2022/10/31 07:42:47;;;;;;;6.65;4.63;;;;;;;20.61;40.15;99844.75;5049076;28;20059;-68
2022/10/31 07:45:15;;;;;;;6.78;3.90;;;;;;;20.91;39.98;99845.78;5033435;28;20021;-68
2022/10/31 07:47:42;;;;;;;8.13;3.63;;;;;;;21.09;39.47;99843.03;5051141;28;20037;-68
2022/10/31 07:50:09;;;;;;;39.55;6.72;;;;;;;21.43;38.98;99854.19;5051128;28;20036;-68
2022/10/31 07:52:35;;;;;;;14.20;3.63;;;;;;;21.42;38.73;99851.75;5050868;28;20475;-68
2022/10/31 07:55:01;;;;;;;18.48;4.47;;;;;;;21.33;38.72;99849.25;5034845;28;20147;-68
2022/10/31 07:57:26;;;;;;;16.20;3.65;;;;;;;21.49;38.78;99850.97;5050861;28;20460;-68
2022/10/31 07:59:52;;;;;;;11.55;4.00;;;;;;;21.78;38.38;99845.38;5046466;28;20044;-69
2022/10/31 08:02:18;;;;;;;16.00;3.92;;;;;;;21.91;37.78;99843.78;5050979;28;20029;-68
2022/10/31 08:04:43;;;;;;;11.48;3.35;;;;;;;22.04;37.57;99841.38;5049722;28;20063;-69
2022/10/31 08:07:09;;;;;;;11.73;3.40;;;;;;;21.83;37.47;99830.72;5026206;28;20029;-69
2022/10/31 08:09:34;;;;;;;15.60;4.25;;;;;;;21.92;37.76;99838.91;5039365;28;20039;-68
2022/10/31 08:12:01;;;;;;;10.85;3.92;;;;;;;21.79;37.85;99838.47;5044787;28;20076;-68
2022/10/31 08:14:26;;;;;;;9.63;4.65;;;;;;;22.00;37.81;99840.53;5050542;28;20028;-68
2022/10/31 08:16:53;;;;;;;8.30;4.00;;;;;;;21.95;37.33;99841.72;5050102;28;20033;-68
2022/10/31 08:19:18;;;;;;;13.13;3.22;;;;;;;21.88;37.46;99838.88;5040150;28;20029;-68
2022/10/31 08:21:44;;;;;;;7.68;3.50;;;;;;;21.93;37.53;99823.44;5050937;28;20074;-68
2022/10/31 08:24:09;;;;;;;13.07;3.88;;;;;;;21.80;37.71;99832.38;5050753;28;20033;-69
2022/10/31 08:26:35;;;;;;;9.95;3.38;;;;;;;21.83;37.63;99842.94;5050627;28;20013;-68
2022/10/31 08:29:00;;;;;;;18.23;3.35;;;;;;;21.73;38.01;99833.16;5048973;28;20036;-72
2022/10/31 08:31:27;;;;;;;11.93;3.28;;;;;;;21.64;37.81;99844.09;5033173;28;20064;-71
2022/10/31 08:33:53;;;;;;;10.27;3.10;;;;;;;21.57;38.20;99838.38;5050314;28;20094;-71
2022/10/31 08:36:20;;;;;;;12.80;3.10;;;;;;;21.63;38.30;99845.31;5047283;28;20033;-71
2022/10/31 08:38:46;;;;;;;9.18;3.15;;;;;;;21.59;38.28;99848.13;5050470;28;20476;-71
2022/10/31 08:41:12;;;;;;;12.63;3.00;;;;;;;21.56;38.14;99840.41;5050142;28;20040;-72
2022/10/31 08:43:37;;;;;;;11.27;3.58;;;;;;;21.49;38.17;99833.88;5035186;28;20033;-71
2022/10/31 08:46:03;;;;;;;18.42;4.65;;;;;;;21.50;38.29;99841.19;5045094;28;20024;-71
2022/10/31 08:48:29;;;;;;;18.25;4.93;;;;;;;21.55;38.15;99841.63;5046646;28;20028;-72
2022/10/31 08:50:57;;;;;;;8.88;3.38;;;;;;;21.77;37.94;99843.75;5050501;28;20056;-72
2022/10/31 08:53:23;;;;;;;15.10;2.90;;;;;;;21.96;37.99;99846.22;5036377;28;20403;-71
2022/10/31 08:55:49;;;;;;;8.07;3.22;;;;;;;22.23;36.85;99839.31;5050458;28;20029;-72
2022/10/31 08:58:19;;;;;;;24.83;3.78;;;;;;;22.24;37.23;99836.09;5036228;28;20094;-78
2022/10/31 09:00:45;;;;;;;;;;;;;;;22.56;36.50;99854.41;5043499;28;20017;-72
2022/10/31 09:03:13;;;;;;;17.77;6.07;;;;;;;22.55;36.39;99842.19;5035483;28;20353;-73
2022/10/31 09:05:39;;;;;;;34.47;23.40;;;;;;;22.63;36.36;99839.34;5050328;28;20467;-73
2022/10/31 09:08:06;;;;;;;12.65;4.50;;;;;;;22.82;35.86;99844.63;5050584;28;20115;-72
2022/10/31 09:10:33;;;;;;;5.35;2.63;;;;;;;22.62;35.16;99832.81;5033330;28;20044;-73
2022/10/31 09:13:07;;;;;;;12.55;3.30;;;;;;;22.65;35.92;99834.88;5047638;28;20020;-73
2022/10/31 09:15:35;;;;;;;9.65;2.85;;;;;;;22.77;34.72;99827.13;5048976;28;20491;-72
2022/10/31 09:18:01;;;;;;;13.48;6.10;;;;;;;22.97;35.43;99833.97;5044140;28;20021;-72
2022/10/31 09:20:27;;;;;;;11.65;5.70;;;;;;;23.20;34.80;99834.72;5039351;28;20503;-72
2022/10/31 09:22:58;;;;;;;8.77;3.95;;;;;;;23.53;34.16;99824.81;5052172;28;20029;-73
2022/10/31 09:25:23;;;;;;;12.35;4.55;;;;;;;23.77;33.94;99827.13;5036637;28;20032;-73
2022/10/31 09:27:49;;;;;;;12.88;4.72;;;;;;;23.73;33.95;99824.31;5054558;28;20020;-72
2022/10/31 09:30:14;;;;;;;8.50;4.70;;;;;;;23.45;33.96;99831.78;5036425;28;20491;-71
2022/10/31 09:32:40;;;;;;;9.38;5.90;;;;;;;23.47;34.13;99829.34;5034913;28;20040;-70
2022/10/31 09:35:06;;;;;;;15.15;6.80;;;;;;;23.47;33.50;99828.53;5054011;28;20020;-70
2022/10/31 09:37:31;;;;;;;24.10;6.32;;;;;;;23.62;34.24;99824.34;5052294;28;20464;-69
2022/10/31 09:39:57;;;;;;;13.88;9.60;;;;;;;23.70;33.99;99823.09;5036100;28;20036;-70
2022/10/31 09:42:34;;;;;;;24.92;8.65;;;;;;;23.63;34.18;99822.34;5050892;28;20585;-70
2022/10/31 09:45:11;;;;;;;27.63;8.48;;;;;;;23.66;34.26;99828.03;5053130;28;20025;-70
2022/10/31 09:48:04;;;;;;;19.17;5.75;;;;;;;23.71;34.07;99823.91;5034705;28;20098;-70
2022/10/31 09:50:41;;;;;;;12.90;4.65;;;;;;;23.70;34.18;99817.38;5034005;28;20026;-72
2022/10/31 09:53:37;;;;;;;13.68;5.53;;;;;;;23.80;34.38;99815.69;5049992;28;20112;-69
2022/10/31 09:56:07;;;;;;;11.55;4.15;;;;;;;23.67;34.78;99818.22;5035094;28;20029;-71
2022/10/31 09:58:39;;;;;;;15.98;4.75;;;;;;;23.79;34.36;99813.25;5053853;28;20017;-69
2022/10/31 10:01:06;;;;;;;7.35;3.20;;;;;;;23.90;33.56;99808.28;5052694;28;20025;-73
2022/10/31 10:03:54;;;;;;;9.95;3.30;;;;;;;24.05;33.15;99814.72;5022586;28;20121;-71
2022/10/31 10:06:25;;;;;;;11.93;3.92;;;;;;;24.13;33.38;99804.06;5055543;28;20024;-70
2022/10/31 10:08:51;;;;;;;7.50;3.10;;;;;;;24.17;33.36;99804.84;5033176;28;20032;-71
2022/10/31 10:11:38;;;;;;;12.20;2.58;;;;;;;24.40;33.16;99804.22;5050266;28;20045;-70
2022/10/31 10:14:30;;;;;;;9.50;3.00;;;;;;;24.53;32.68;99804.53;5053666;28;20102;-69
2022/10/31 10:17:17;;;;;;;9.95;2.88;;;;;;;24.60;32.13;99792.22;5050119;28;20111;-69
2022/10/31 10:20:16;;;;;;;6.90;2.40;;;;;;;24.82;31.93;99794.88;5035476;28;20650;-69
2022/10/31 10:23:03;;;;;;;5.10;2.70;;;;;;;24.68;31.93;99795.81;5030953;28;20068;-70
2022/10/31 10:25:39;;;;;;;8.45;2.13;;;;;;;24.52;32.27;99791.47;5033733;28;20033;-70
2022/10/31 10:28:25;;;;;;;9.55;2.95;;;;;;;24.40;32.64;99792.00;5043582;28;20660;-70
2022/10/31 10:30:56;;;;;;;11.45;2.80;;;;;;;24.32;32.46;99790.44;5028064;28;20513;-69
2022/10/31 10:33:30;;;;;;;9.75;3.50;;;;;;;24.46;32.47;99787.44;5040233;28;20475;-68
2022/10/31 10:36:03;;;;;;;6.75;3.00;;;;;;;24.38;32.32;99785.91;5022682;28;20025;-69
2022/10/31 10:38:35;;;;;;;6.13;2.30;;;;;;;24.27;32.08;99785.97;5038249;28;20056;-70
2022/10/31 10:41:12;;;;;;;17.90;2.50;;;;;;;24.23;32.22;99777.44;5039816;28;20115;-71
2022/10/31 10:43:38;;;;;;;10.55;2.20;;;;;;;24.48;32.58;99776.38;5024376;28;20075;-69
2022/10/31 10:49:23;;;;;;;4.93;2.20;;;;;;;24.98;31.58;99776.31;5039571;28;20099;-68
2022/10/31 10:52:19;;;;;;;4.38;2.05;;;;;;;24.84;31.59;99772.38;5040695;28;20737;-68
2022/10/31 10:55:06;;;;;;;6.03;2.08;;;;;;;24.72;31.45;99779.41;5041638;28;20138;-71
2022/10/31 10:57:41;;;;;;;7.18;2.33;;;;;;;24.97;31.85;99774.69;5024656;28;20124;-72
2022/10/31 11:00:25;;;;;;;10.13;2.97;;;;;;;24.98;31.41;99770.56;5041368;28;20115;-71
2022/10/31 11:02:51;;;;;;;8.35;2.55;;;;;;;24.84;31.07;99769.50;5039574;28;20029;-69
2022/10/31 11:05:28;;;;;;;10.82;2.85;;;;;;;25.31;31.43;99771.78;5040106;28;20043;-69
2022/10/31 11:07:54;;;;;;;4.97;1.77;;;;;;;25.54;30.24;99761.69;5039628;28;20053;-69
2022/10/31 11:10:20;;;;;;;8.52;2.42;;;;;;;25.71;30.03;99756.94;5042474;28;20153;-70
2022/10/31 11:13:17;;;;;;;3.72;1.92;;;;;;;25.60;30.09;99757.09;5043004;28;20025;-73
2022/10/31 11:15:50;;;;;;;8.38;2.88;;;;;;;25.75;29.92;99756.88;5046650;28;20028;-73
2022/10/31 11:18:24;;;;;;;5.03;2.13;;;;;;;26.15;29.25;99759.09;5027798;28;20020;-70
2022/10/31 11:20:56;;;;;;;4.28;1.90;;;;;;;26.51;29.26;99769.13;5050240;28;20029;-71
2022/10/31 11:23:24;;;;;;;5.82;2.35;;;;;;;26.32;28.69;99757.22;5049237;28;20020;-71
2022/10/31 11:25:59;;;;;;;6.53;2.83;;;;;;;25.84;29.47;99759.19;5049946;28;20048;-71
2022/10/31 11:28:26;;;;;;;11.02;2.40;;;;;;;25.43;30.42;99752.41;5032124;28;20173;-71
2022/10/31 11:30:54;;;;;;;10.13;2.40;;;;;;;24.96;31.10;99753.84;5027734;28;20387;-71
2022/10/31 11:33:34;;;;;;;7.35;2.90;;;;;;;24.86;31.44;99758.44;5030397;28;20030;-71
2022/10/31 11:36:02;;;;;;;12.27;3.05;;;;;;;24.47;31.51;99749.03;5047576;28;20542;-72
2022/10/31 11:38:39;;;;;;;12.27;2.50;;;;;;;24.46;31.79;99744.56;5049965;28;20029;-73
2022/10/31 11:41:14;;;;;;;7.32;2.72;;;;;;;24.71;31.96;99745.53;5045807;28;20407;-72
2022/10/31 11:43:51;;;;;;;4.75;2.15;;;;;;;24.92;31.07;99742.47;5027305;28;20025;-71